Time;durP1;ratioP1;P1;durP2;ratioP2;P2;SDS_P1;SDS_P2;PMS_P1;PMS_P2;Temp;Humidity;BMP_temperature;BMP_pressure;BME280_temperature;BME280_humidity;BME280_pressure;Samples;Min_cycle;Max_cycle;Signal;HPM_P1;HPM_P2
2022/06/18 00:00:44;;;;;;;7.40;6.73;;;;;;;24.40;68.99;99603.94;5013084;28;20193;-76
2022/06/18 00:03:11;;;;;;;8.03;7.40;;;;;;;24.43;68.31;99606.88;5012639;28;20642;-77
2022/06/18 00:05:40;;;;;;;8.33;7.57;;;;;;;24.48;68.00;99598.72;5012307;28;20205;-76
2022/06/18 00:08:14;;;;;;;7.83;7.27;;;;;;;24.49;68.03;99600.34;5012545;28;20201;-76
2022/06/18 00:10:42;;;;;;;8.00;7.50;;;;;;;24.29;67.57;99570.63;5012750;28;20189;-77
2022/06/18 00:13:39;;;;;;;7.43;6.97;;;;;;;24.54;67.75;99602.22;5012581;28;20236;-78
2022/06/18 00:16:07;;;;;;;7.77;7.10;;;;;;;24.49;67.73;99600.34;5012202;28;20677;-78
2022/06/18 00:18:34;;;;;;;8.93;8.13;;;;;;;24.42;67.85;99594.41;5012640;28;20265;-78
2022/06/18 00:21:02;;;;;;;8.13;7.73;;;;;;;24.39;68.27;99605.81;5015750;28;20735;-79
2022/06/18 00:23:31;;;;;;;7.70;7.33;;;;;;;24.40;68.65;99602.03;5017063;28;20267;-78
2022/06/18 00:25:58;;;;;;;8.83;8.13;;;;;;;24.44;67.91;99594.94;5015807;28;20197;-78
2022/06/18 00:28:27;;;;;;;7.37;6.87;;;;;;;24.43;67.83;99582.44;5016134;28;20204;-78
2022/06/18 00:30:55;;;;;;;8.27;7.77;;;;;;;24.55;67.27;99596.47;5015973;28;20719;-79
2022/06/18 00:33:22;;;;;;;9.17;8.57;;;;;;;24.51;67.67;99573.69;5015737;28;20247;-78
2022/06/18 00:35:56;;;;;;;7.67;7.17;;;;;;;24.58;67.86;99576.91;5015963;28;20247;-77
2022/06/18 00:38:26;;;;;;;8.03;7.40;;;;;;;24.55;67.96;99571.22;5016744;28;20221;-76
2022/06/18 00:40:55;;;;;;;9.00;8.27;;;;;;;24.45;67.60;99572.13;5016416;28;20588;-76
2022/06/18 00:43:27;;;;;;;8.47;7.87;;;;;;;24.41;67.40;99568.34;5015714;28;20201;-77
2022/06/18 00:45:58;;;;;;;8.90;8.10;;;;;;;24.40;67.71;99557.78;5015496;28;20657;-76
2022/06/18 00:48:44;;;;;;;9.40;8.50;;;;;;;24.44;67.83;99558.81;5016623;28;20193;-75
2022/06/18 00:51:16;;;;;;;9.37;8.53;;;;;;;24.43;68.26;99557.22;5015388;28;20193;-75
2022/06/18 00:53:48;;;;;;;9.00;8.10;;;;;;;24.43;68.56;99558.00;5015764;28;20189;-76
2022/06/18 00:56:29;;;;;;;8.73;7.93;;;;;;;24.42;69.32;99559.09;5015892;28;20602;-75
2022/06/18 00:59:01;;;;;;;9.30;8.70;;;;;;;24.38;69.13;99549.91;5015122;28;20213;-76
2022/06/18 01:01:31;;;;;;;9.73;9.00;;;;;;;24.36;68.88;99546.69;5015171;28;20197;-76
2022/06/18 01:03:58;;;;;;;8.73;8.10;;;;;;;24.25;69.02;99539.69;5015395;28;20654;-76
2022/06/18 01:06:29;;;;;;;10.37;9.37;;;;;;;23.83;71.33;99542.13;5015621;28;20204;-76
2022/06/18 01:09:01;;;;;;;10.77;9.63;;;;;;;23.81;71.14;99541.59;5015649;28;20254;-76
2022/06/18 01:11:35;;;;;;;10.33;9.43;;;;;;;23.89;70.70;99543.72;5015458;28;20188;-76
2022/06/18 01:14:04;;;;;;;9.43;8.73;;;;;;;23.96;70.14;99541.53;5015571;28;20228;-76
2022/06/18 01:16:32;;;;;;;9.00;8.37;;;;;;;23.94;69.88;99532.84;5015212;28;20200;-75
2022/06/18 01:18:59;;;;;;;8.77;8.20;;;;;;;23.79;69.76;99527.50;5015372;28;20663;-77
2022/06/18 01:21:33;;;;;;;8.80;7.90;;;;;;;23.47;71.15;99531.75;5015169;28;20201;-77
2022/06/18 01:24:11;;;;;;;8.73;8.03;;;;;;;23.19;72.36;99526.97;5015316;28;20261;-78
2022/06/18 01:26:38;;;;;;;8.50;7.90;;;;;;;22.89;73.70;99525.16;5015354;28;20237;-78
2022/06/18 01:29:05;;;;;;;8.80;8.17;;;;;;;22.79;74.13;99525.16;5014674;28;20644;-78
2022/06/18 01:31:32;;;;;;;9.27;8.57;;;;;;;22.95;74.10;99528.69;5014243;28;20195;-79
2022/06/18 01:34:00;;;;;;;8.43;7.83;;;;;;;23.02;73.65;99523.75;5014653;28;20572;-78
2022/06/18 01:36:30;;;;;;;8.73;8.13;;;;;;;22.97;73.87;99516.47;5014540;28;20780;-77
2022/06/18 01:38:57;;;;;;;8.30;7.90;;;;;;;22.98;73.79;99523.50;5014228;28;20708;-77
2022/06/18 01:44:25;;;;;;;8.20;7.60;;;;;;;22.83;74.87;99537.09;5014621;28;20327;-79
2022/06/18 01:46:56;;;;;;;8.97;8.27;;;;;;;22.79;74.86;99538.72;5014757;28;20191;-79
2022/06/18 01:49:29;;;;;;;8.90;8.40;;;;;;;22.85;74.63;99534.94;5014656;28;20249;-79
2022/06/18 01:51:58;;;;;;;7.00;6.40;;;;;;;22.86;73.66;99524.88;5014225;28;20193;-79
2022/06/18 01:54:30;;;;;;;7.37;6.87;;;;;;;22.77;73.16;99530.06;5014207;28;20191;-79
2022/06/18 01:57:05;;;;;;;7.17;6.70;;;;;;;22.57;73.11;99526.56;5015384;28;20187;-78
2022/06/18 01:59:35;;;;;;;6.70;6.20;;;;;;;22.51;73.27;99530.38;5014962;28;20264;-78
2022/06/18 02:02:03;;;;;;;6.73;6.27;;;;;;;22.53;72.61;99534.44;5014848;28;20187;-77
2022/06/18 02:04:33;;;;;;;7.10;6.60;;;;;;;22.48;72.84;99539.03;5014053;28;20225;-78
2022/06/18 02:07:00;;;;;;;6.17;5.90;;;;;;;22.53;72.43;99541.72;5014283;28;20201;-78
2022/06/18 02:09:35;;;;;;;6.43;6.07;;;;;;;22.28;73.42;99539.00;5013987;28;20194;-77
2022/06/18 02:12:07;;;;;;;6.87;5.97;;;;;;;22.00;74.33;99520.59;5014073;28;20646;-76
2022/06/18 02:14:35;;;;;;;6.77;6.37;;;;;;;22.09;74.27;99536.03;5014422;28;20277;-77
2022/06/18 02:17:06;;;;;;;6.50;6.20;;;;;;;22.09;74.76;99535.22;5014148;28;20256;-79
2022/06/18 02:19:36;;;;;;;6.90;6.40;;;;;;;21.94;75.56;99527.91;5014347;28;20279;-79
2022/06/18 02:22:06;;;;;;;6.60;6.30;;;;;;;21.94;76.07;99537.91;5013709;28;20230;-78
2022/06/18 02:24:33;;;;;;;6.87;6.47;;;;;;;21.85;76.78;99526.78;5013778;28;20658;-76
2022/06/18 02:27:00;;;;;;;6.57;6.07;;;;;;;21.91;76.72;99539.25;5013673;28;20666;-78
2022/06/18 02:29:30;;;;;;;6.47;6.17;;;;;;;22.04;76.04;99538.72;5013555;28;20202;-78
2022/06/18 02:31:58;;;;;;;6.80;6.30;;;;;;;22.00;76.45;99537.63;5013757;28;20190;-78
2022/06/18 02:34:28;;;;;;;6.60;6.30;;;;;;;22.18;76.04;99539.00;5013485;28;20686;-77
2022/06/18 02:36:56;;;;;;;7.00;6.57;;;;;;;22.18;76.54;99539.00;5014000;28;20198;-77
2022/06/18 02:39:33;;;;;;;7.13;6.50;;;;;;;22.34;75.54;99540.66;5013598;28;20225;-77
2022/06/18 02:42:05;;;;;;;7.23;6.73;;;;;;;22.40;76.00;99545.78;5014622;28;20201;-78
2022/06/18 02:44:34;;;;;;;7.00;6.27;;;;;;;22.40;75.52;99537.66;5013894;28;20191;-79
2022/06/18 02:47:06;;;;;;;6.63;6.33;;;;;;;22.29;76.07;99546.84;5013326;28;20232;-79
2022/06/18 02:49:35;;;;;;;7.03;6.43;;;;;;;22.22;76.52;99535.47;5013321;28;20231;-79
2022/06/18 02:52:03;;;;;;;7.10;6.60;;;;;;;22.30;76.02;99526.03;5013547;28;20281;-77
2022/06/18 02:54:30;;;;;;;7.20;6.70;;;;;;;22.36;76.15;99539.28;5013016;28;20675;-78
2022/06/18 02:57:00;;;;;;;7.70;6.67;;;;;;;22.41;76.23;99539.28;5013292;28;20280;-78
2022/06/18 02:59:27;;;;;;;8.87;6.60;;;;;;;22.44;76.13;99536.03;5013311;28;20257;-78
2022/06/18 03:01:55;;;;;;;6.67;5.93;;;;;;;22.44;76.04;99538.75;5013233;28;20197;-78
2022/06/18 03:04:22;;;;;;;7.47;6.97;;;;;;;22.35;76.21;99532.25;5013152;28;20248;-78
2022/06/18 03:06:48;;;;;;;6.90;6.50;;;;;;;22.33;76.07;99537.13;5013220;28;20256;-77
2022/06/18 03:09:15;;;;;;;7.10;6.70;;;;;;;22.41;76.05;99542.00;5013167;28;20260;-75
2022/06/18 03:14:26;;;;;;;7.40;6.73;;;;;;;22.51;75.50;99542.03;5014321;28;20233;-77
2022/06/18 03:16:53;;;;;;;6.77;6.30;;;;;;;22.50;75.38;99537.69;5013017;28;20198;-77
2022/06/18 03:19:31;;;;;;;7.13;6.43;;;;;;;22.52;75.27;99545.53;5012546;28;20277;-75
2022/06/18 03:22:05;;;;;;;6.97;6.43;;;;;;;22.51;74.85;99547.44;5012615;28;20194;-75
2022/06/18 03:24:32;;;;;;;7.70;7.20;;;;;;;22.57;74.51;99543.63;5013336;28;20635;-75
2022/06/18 03:26:58;;;;;;;7.13;6.67;;;;;;;22.58;74.55;99542.53;5012779;28;20195;-76
2022/06/18 03:29:25;;;;;;;6.80;6.30;;;;;;;22.62;74.56;99546.34;5012717;28;20252;-75
2022/06/18 03:31:52;;;;;;;6.50;6.10;;;;;;;22.64;74.25;99549.59;5012769;28;20195;-77
2022/06/18 03:34:19;;;;;;;7.23;6.77;;;;;;;22.71;73.55;99543.91;5012586;28;20660;-76
2022/06/18 03:36:47;;;;;;;6.80;6.20;;;;;;;22.60;73.47;99553.94;5012610;28;20265;-76
2022/06/18 03:39:13;;;;;;;6.43;6.07;;;;;;;22.63;73.76;99553.41;5013571;28;20234;-76
2022/06/18 03:41:40;;;;;;;6.63;5.73;;;;;;;22.82;72.80;99553.63;5012328;28;20264;-76
2022/06/18 03:44:07;;;;;;;7.40;6.57;;;;;;;22.70;73.06;99545.78;5012594;28;20246;-76
2022/06/18 03:46:37;;;;;;;7.00;6.47;;;;;;;22.84;72.26;99551.44;5012904;28;20254;-76
2022/06/18 03:49:08;;;;;;;6.50;6.20;;;;;;;22.91;71.77;99555.50;5012685;28;20183;-76
2022/06/18 03:51:35;;;;;;;6.27;5.77;;;;;;;23.06;72.30;99547.34;5013285;28;20192;-75
2022/06/18 03:54:04;;;;;;;6.27;5.87;;;;;;;23.12;71.48;99548.94;5013760;28;20337;-78
2022/06/18 03:56:33;;;;;;;5.50;5.20;;;;;;;22.92;71.89;99551.72;5018713;28;20198;-75
2022/06/18 03:59:00;;;;;;;6.90;6.40;;;;;;;23.03;71.72;99547.88;5018621;28;20678;-75
2022/06/18 04:01:32;;;;;;;6.37;5.97;;;;;;;22.98;71.63;99550.59;5018706;28;20729;-77
2022/06/18 04:03:59;;;;;;;6.00;5.70;;;;;;;23.06;71.82;99550.03;5018770;28;20187;-79
2022/06/18 04:06:26;;;;;;;6.33;6.03;;;;;;;23.03;71.92;99553.28;5019175;28;20575;-79
2022/06/18 04:08:53;;;;;;;6.67;6.10;;;;;;;23.25;71.41;99553.00;5018736;28;20196;-79
2022/06/18 04:11:21;;;;;;;6.13;5.67;;;;;;;23.17;71.36;99548.09;5019875;28;20199;-79
2022/06/18 04:13:48;;;;;;;6.57;6.27;;;;;;;23.23;71.37;99558.69;5019292;28;20293;-79
2022/06/18 04:16:15;;;;;;;6.40;6.03;;;;;;;23.47;70.66;99548.84;5019234;28;20209;-80
2022/06/18 04:18:43;;;;;;;7.20;5.47;;;;;;;24.13;70.02;99563.66;5018614;28;20257;-77
2022/06/18 04:21:10;;;;;;;5.60;5.20;;;;;;;24.85;66.10;99565.53;5018447;28;20239;-76
2022/06/18 04:23:37;;;;;;;7.70;5.47;;;;;;;25.80;62.66;99583.47;5018795;28;20224;-76
2022/06/18 04:26:04;;;;;;;5.43;5.03;;;;;;;26.74;58.62;99590.56;5019037;28;20201;-77
2022/06/18 04:28:32;;;;;;;4.90;4.50;;;;;;;27.30;55.98;99572.88;5018679;28;20262;-77
2022/06/18 04:30:59;;;;;;;5.50;5.10;;;;;;;28.11;53.54;99591.09;5018576;28;20608;-77
2022/06/18 04:33:26;;;;;;;11.73;4.87;;;;;;;28.67;52.09;99599.63;5015810;28;20249;-78
2022/06/18 04:35:54;;;;;;;5.27;4.83;;;;;;;29.05;50.21;99590.69;5018568;28;20197;-76
2022/06/18 04:38:21;;;;;;;7.47;4.77;;;;;;;29.69;48.67;99608.38;5018443;28;20197;-77
2022/06/18 04:40:48;;;;;;;4.70;4.30;;;;;;;29.98;47.10;99608.59;5018208;28;20702;-78
2022/06/18 04:43:16;;;;;;;5.13;4.60;;;;;;;29.30;48.77;99602.88;5018437;28;20194;-77
2022/06/18 04:45:44;;;;;;;6.13;4.67;;;;;;;29.00;49.30;99603.72;5018443;28;20716;-80
2022/06/18 04:48:13;;;;;;;5.63;4.90;;;;;;;28.19;51.68;99593.09;5018034;28;20673;-77
2022/06/18 04:50:41;;;;;;;5.20;4.80;;;;;;;26.93;54.95;99577.66;5018474;28;20202;-81
2022/06/18 04:53:11;;;;;;;5.93;5.37;;;;;;;26.85;55.85;99578.34;5018231;28;20198;-80
2022/06/18 04:55:38;;;;;;;5.50;5.00;;;;;;;26.41;57.05;99583.44;5019309;28;20596;-82
2022/06/18 04:58:06;;;;;;;5.80;5.47;;;;;;;26.28;57.65;99584.16;5018746;28;20194;-77
2022/06/18 05:00:32;;;;;;;5.97;5.57;;;;;;;26.05;58.71;99585.88;5018402;28;20218;-81
2022/06/18 05:03:01;;;;;;;6.43;5.50;;;;;;;26.17;58.28;99588.19;5018305;28;20697;-80
2022/06/18 05:05:29;;;;;;;6.17;5.80;;;;;;;25.72;60.20;99577.91;5017561;28;20630;-80
2022/06/18 05:07:55;;;;;;;6.60;5.60;;;;;;;25.87;60.24;99588.56;5015024;28;20198;-81
2022/06/18 05:10:22;;;;;;;5.43;5.13;;;;;;;26.03;59.96;99595.44;5015391;28;20205;-81
2022/06/18 05:12:49;;;;;;;6.07;5.77;;;;;;;26.10;59.80;99604.06;5015269;28;20650;-80
2022/06/18 05:15:16;;;;;;;5.87;5.37;;;;;;;26.25;59.11;99595.69;5015008;28;20717;-82
2022/06/18 05:17:45;;;;;;;6.90;5.87;;;;;;;26.02;59.76;99608.28;5014905;28;20256;-80
2022/06/18 05:20:16;;;;;;;5.77;5.27;;;;;;;26.28;59.21;99612.22;5014881;28;20225;-71
2022/06/18 05:22:43;;;;;;;6.00;5.50;;;;;;;26.46;58.32;99619.56;5012269;28;20736;-71
2022/06/18 05:25:11;;;;;;;14.97;6.43;;;;;;;26.54;58.67;99616.16;5014000;28;20197;-69
2022/06/18 05:27:38;;;;;;;6.67;6.00;;;;;;;26.47;58.62;99623.13;5014525;28;20252;-70
2022/06/18 05:30:07;;;;;;;5.80;5.37;;;;;;;26.74;57.94;99626.00;5014734;28;20194;-70
2022/06/18 05:32:33;;;;;;;11.60;5.77;;;;;;;26.88;57.49;99627.66;5014461;28;20252;-71
2022/06/18 05:35:00;;;;;;;6.07;5.67;;;;;;;26.94;57.49;99623.72;5014590;28;20194;-69
2022/06/18 05:37:30;;;;;;;6.10;5.60;;;;;;;27.19;56.45;99633.38;5014379;28;20682;-68
2022/06/18 05:39:57;;;;;;;8.63;5.83;;;;;;;27.23;56.59;99628.97;5014715;28;20210;-71
2022/06/18 05:42:24;;;;;;;5.70;5.33;;;;;;;27.41;55.47;99630.78;5014565;28;20650;-68
2022/06/18 05:44:51;;;;;;;6.53;5.47;;;;;;;27.64;54.94;99629.78;5014495;28;20204;-69
2022/06/18 05:47:21;;;;;;;6.23;5.70;;;;;;;27.91;53.68;99635.25;5013121;28;20271;-68
2022/06/18 05:49:47;;;;;;;7.97;5.77;;;;;;;28.08;53.86;99624.47;5014082;28;20204;-68
2022/06/18 05:52:16;;;;;;;6.10;5.67;;;;;;;28.39;52.99;99630.88;5014279;28;20190;-68
2022/06/18 05:54:44;;;;;;;6.20;5.70;;;;;;;28.81;51.93;99633.97;5014057;28;20198;-69
2022/06/18 05:57:11;;;;;;;7.60;5.63;;;;;;;29.19;51.76;99643.41;5013433;28;20544;-68
2022/06/18 05:59:37;;;;;;;8.93;5.77;;;;;;;29.45;49.60;99642.72;5013625;28;20248;-68
2022/06/18 06:02:04;;;;;;;6.13;5.57;;;;;;;29.35;49.83;99643.78;5010318;28;20737;-70
2022/06/18 06:04:31;;;;;;;5.93;5.40;;;;;;;29.76;48.73;99652.50;5004144;28;20725;-71
2022/06/18 06:06:58;;;;;;;5.23;4.83;;;;;;;30.14;46.51;99655.53;5005591;28;20190;-71
2022/06/18 06:12:13;;;;;;;5.60;5.10;;;;;;;30.45;45.79;99654.28;5009686;28;20201;-69
2022/06/18 06:14:41;;;;;;;5.00;4.60;;;;;;;30.63;44.95;99653.16;5014560;28;20186;-70
2022/06/18 06:17:14;;;;;;;8.33;4.80;;;;;;;31.02;43.42;99649.41;5013334;28;20674;-72
2022/06/18 06:19:41;;;;;;;4.43;4.13;;;;;;;31.24;43.43;99647.28;5007142;28;20551;-73
2022/06/18 06:22:08;;;;;;;7.87;4.83;;;;;;;31.22;42.85;99638.56;5013617;28;20194;-72
2022/06/18 06:24:35;;;;;;;5.13;4.63;;;;;;;30.97;42.23;99636.69;5013586;28;20625;-70
2022/06/18 06:27:02;;;;;;;5.00;4.70;;;;;;;31.13;42.62;99648.75;5013390;28;20198;-70
2022/06/18 06:29:30;;;;;;;5.60;4.70;;;;;;;31.25;42.32;99643.41;5013727;28;20260;-76
2022/06/18 06:31:57;;;;;;;6.57;5.00;;;;;;;31.53;40.63;99639.13;5013544;28;20198;-75
2022/06/18 06:34:24;;;;;;;5.20;4.70;;;;;;;31.38;40.42;99636.91;5013351;28;20658;-75
2022/06/18 06:36:51;;;;;;;3.93;3.57;;;;;;;31.33;41.53;99639.03;5004472;28;20367;-76
2022/06/18 06:39:18;;;;;;;5.10;4.60;;;;;;;30.85;41.80;99644.78;4991922;28;20206;-76
2022/06/18 06:41:45;;;;;;;4.60;4.20;;;;;;;30.20;42.64;99632.31;4993571;28;20222;-76
2022/06/18 06:44:12;;;;;;;4.70;4.40;;;;;;;30.15;42.66;99636.03;4993406;28;20632;-74
2022/06/18 06:46:40;;;;;;;6.37;4.93;;;;;;;29.87;44.01;99639.31;4993690;28;20199;-77
2022/06/18 06:49:07;;;;;;;4.97;4.47;;;;;;;29.53;44.58;99634.53;4992571;28;20730;-77
2022/06/18 06:51:37;;;;;;;5.23;4.83;;;;;;;29.46;44.25;99645.13;4993309;28;20261;-77
2022/06/18 06:54:05;;;;;;;4.73;4.43;;;;;;;28.89;46.28;99640.59;4993216;28;20238;-75
2022/06/18 06:59:16;;;;;;;4.73;4.40;;;;;;;28.25;47.20;99635.56;4993457;28;20186;-76
2022/06/18 07:01:45;;;;;;;6.50;5.10;;;;;;;28.16;48.58;99632.78;4994024;28;20222;-76
2022/06/18 07:04:13;;;;;;;5.17;4.77;;;;;;;28.05;48.66;99630.56;4993517;28;20199;-76
2022/06/18 07:06:41;;;;;;;4.60;4.20;;;;;;;28.17;48.50;99628.91;4993162;28;20253;-76
2022/06/18 07:09:09;;;;;;;9.47;5.60;;;;;;;28.16;48.80;99626.50;4992911;28;20698;-76
2022/06/18 07:11:37;;;;;;;8.57;4.73;;;;;;;27.79;50.13;99610.34;5006460;28;20201;-76
2022/06/18 07:14:04;;;;;;;4.70;4.30;;;;;;;28.03;48.72;99600.00;5012509;28;20664;-76
2022/06/18 07:16:31;;;;;;;5.10;4.60;;;;;;;27.97;48.68;99623.09;5012692;28;20252;-75
2022/06/18 07:18:59;;;;;;;9.17;4.77;;;;;;;27.64;49.28;99618.88;5012706;28;20198;-75
2022/06/18 07:21:26;;;;;;;6.47;5.00;;;;;;;27.77;49.61;99623.50;5012635;28;20222;-75
2022/06/18 07:23:53;;;;;;;8.27;4.87;;;;;;;27.43;50.31;99617.63;5013028;28;20197;-76
2022/06/18 07:26:22;;;;;;;5.70;4.60;;;;;;;27.25;51.20;99626.72;5012638;28;20202;-76
2022/06/18 07:28:49;;;;;;;5.37;4.77;;;;;;;27.33;50.84;99626.84;5011740;28;20197;-76
2022/06/18 07:31:26;;;;;;;7.00;4.83;;;;;;;27.14;51.58;99623.34;5012269;28;20288;-76
2022/06/18 07:33:52;;;;;;;4.50;4.20;;;;;;;27.37;51.23;99627.03;5012478;28;20186;-76
2022/06/18 07:36:21;;;;;;;5.93;4.40;;;;;;;27.70;50.76;99623.09;5012513;28;20190;-76
2022/06/18 07:38:47;;;;;;;15.10;5.17;;;;;;;27.88;50.29;99630.38;5012635;28;20320;-75
2022/06/18 07:41:17;;;;;;;5.10;4.60;;;;;;;27.65;49.83;99631.41;5013033;28;20226;-75
2022/06/18 07:43:49;;;;;;;6.70;5.53;;;;;;;27.56;50.13;99630.50;5012564;28;20288;-75
2022/06/18 07:46:17;;;;;;;6.90;4.40;;;;;;;27.41;50.22;99631.59;5012180;28;20718;-75
2022/06/18 07:48:44;;;;;;;5.67;5.07;;;;;;;27.55;49.64;99631.59;5012001;28;20202;-75
2022/06/18 07:51:11;;;;;;;7.00;4.77;;;;;;;27.72;50.31;99637.28;5012655;28;20198;-75
2022/06/18 07:53:40;;;;;;;6.03;4.70;;;;;;;27.82;49.80;99632.44;5012116;28;20279;-76
2022/06/18 07:56:07;;;;;;;6.67;4.70;;;;;;;27.91;49.82;99635.25;5012066;28;20202;-76
2022/06/18 07:58:34;;;;;;;12.63;4.77;;;;;;;27.84;50.82;99632.94;5012251;28;20190;-76
2022/06/18 08:01:01;;;;;;;5.07;4.60;;;;;;;27.91;50.45;99636.06;5012833;28;20218;-75
2022/06/18 08:03:28;;;;;;;4.83;4.23;;;;;;;28.05;49.65;99630.56;5011871;28;20197;-76
2022/06/18 08:05:56;;;;;;;13.83;4.90;;;;;;;28.18;48.83;99637.94;5012351;28;20255;-75
2022/06/18 08:08:22;;;;;;;5.37;4.53;;;;;;;28.30;47.62;99627.28;5011819;28;20244;-76
2022/06/18 08:10:53;;;;;;;7.90;4.90;;;;;;;28.45;46.93;99629.66;5004762;28;20199;-76
2022/06/18 08:13:20;;;;;;;8.03;4.97;;;;;;;28.61;46.61;99630.91;4992829;28;20252;-76
2022/06/18 08:15:48;;;;;;;7.03;4.70;;;;;;;28.75;45.59;99635.19;4992532;28;20245;-76
2022/06/18 08:18:14;;;;;;;4.50;4.20;;;;;;;28.96;45.02;99640.97;4992512;28;20195;-75
2022/06/18 08:20:42;;;;;;;4.43;4.03;;;;;;;29.10;43.40;99641.72;4992312;28;20222;-76
2022/06/18 08:23:10;;;;;;;5.10;4.67;;;;;;;29.32;42.46;99643.63;4992178;28;20205;-75
2022/06/18 08:25:40;;;;;;;12.83;4.80;;;;;;;29.57;41.25;99643.78;4992161;28;20249;-76
2022/06/18 08:28:10;;;;;;;6.70;3.83;;;;;;;29.87;40.63;99642.88;4993050;28;20611;-76
2022/06/18 08:30:37;;;;;;;5.13;4.70;;;;;;;30.27;40.54;99635.41;4992329;28;20595;-76
2022/06/18 08:33:04;;;;;;;4.23;3.93;;;;;;;30.49;39.21;99636.06;4992055;28;20201;-77
2022/06/18 08:35:32;;;;;;;4.90;4.70;;;;;;;30.82;38.87;99631.69;4992444;28;20191;-77
2022/06/18 08:37:59;;;;;;;5.20;4.47;;;;;;;31.33;38.40;99645.34;4992421;28;20199;-76
2022/06/18 08:40:36;;;;;;;4.40;4.10;;;;;;;31.60;37.55;99639.38;4992109;28;20199;-77
2022/06/18 08:43:15;;;;;;;5.37;4.40;;;;;;;31.65;37.25;99633.69;4995605;28;20322;-76
2022/06/18 08:45:48;;;;;;;5.00;4.10;;;;;;;31.96;36.73;99628.72;4996082;28;20191;-76
2022/06/18 08:48:37;;;;;;;6.53;4.20;;;;;;;32.42;35.87;99633.28;4997020;28;20191;-76
2022/06/18 08:51:18;;;;;;;3.60;3.40;;;;;;;32.67;35.59;99624.78;4995559;28;20194;-76
2022/06/18 08:54:20;;;;;;;4.17;3.97;;;;;;;32.67;35.12;99635.78;4996474;28;20617;-76
2022/06/18 08:56:52;;;;;;;4.10;3.90;;;;;;;32.77;34.37;99629.06;4995550;28;20642;-76
2022/06/18 08:59:34;;;;;;;5.93;4.40;;;;;;;32.80;34.72;99620.97;4995805;28;20195;-76
2022/06/18 09:02:10;;;;;;;5.83;3.97;;;;;;;32.42;35.20;99622.28;4995617;28;20249;-76
2022/06/18 09:04:49;;;;;;;7.83;4.13;;;;;;;32.46;35.61;99634.22;4995309;28;20191;-76
2022/06/18 09:07:39;;;;;;;4.60;4.10;;;;;;;32.30;36.57;99625.75;4995415;28;20729;-77
2022/06/18 09:10:15;;;;;;;4.37;4.07;;;;;;;32.07;36.48;99626.38;4996320;28;20197;-76
2022/06/18 09:12:46;;;;;;;4.93;4.50;;;;;;;31.84;37.03;99620.38;5015782;28;20229;-77
2022/06/18 09:15:19;;;;;;;4.70;4.10;;;;;;;31.85;37.17;99613.75;5015323;28;20194;-77
2022/06/18 09:17:52;;;;;;;5.03;4.63;;;;;;;31.42;38.44;99604.91;5015577;28;20186;-77
2022/06/18 09:20:23;;;;;;;5.33;4.83;;;;;;;31.22;39.59;99611.09;5014739;28;20262;-75
2022/06/18 09:22:54;;;;;;;6.43;4.80;;;;;;;31.10;40.07;99591.75;5015080;28;20264;-78
2022/06/18 09:25:25;;;;;;;5.23;4.90;;;;;;;31.45;39.81;99600.69;5015127;28;20174;-77
2022/06/18 09:27:57;;;;;;;5.27;4.73;;;;;;;30.85;40.34;99594.56;5015181;28;20186;-76
2022/06/18 09:30:31;;;;;;;5.27;4.87;;;;;;;30.77;40.18;99590.72;5015129;28;20186;-76
2022/06/18 09:33:03;;;;;;;5.20;4.70;;;;;;;30.78;39.46;99605.25;5014852;28;20185;-76
2022/06/18 09:35:36;;;;;;;4.90;4.60;;;;;;;30.83;40.28;99614.09;5014317;28;20650;-77
2022/06/18 09:38:09;;;;;;;5.73;4.77;;;;;;;30.50;39.63;99612.97;5015220;28;20190;-76
2022/06/18 09:40:40;;;;;;;5.33;4.93;;;;;;;30.00;41.35;99617.28;5014099;28;20190;-75
2022/06/18 09:43:15;;;;;;;4.57;4.37;;;;;;;30.57;40.57;99627.00;5014829;28;20209;-76
2022/06/18 09:45:47;;;;;;;5.37;4.93;;;;;;;30.83;40.38;99636.03;5014690;28;20185;-76
2022/06/18 09:48:14;;;;;;;4.53;4.27;;;;;;;30.94;39.61;99637.31;5014630;28;20616;-75
2022/06/18 09:50:46;;;;;;;6.70;4.87;;;;;;;30.66;40.62;99636.03;5014033;28;20198;-76
2022/06/18 09:53:17;;;;;;;5.00;4.80;;;;;;;30.34;41.40;99628.28;5014751;28;20186;-75
2022/06/18 09:55:48;;;;;;;6.00;5.60;;;;;;;30.01;43.63;99621.63;5014360;28;20186;-77
2022/06/18 09:58:21;;;;;;;6.43;6.03;;;;;;;29.27;45.54;99641.03;5014752;28;20260;-77
2022/06/18 10:00:51;;;;;;;7.60;4.43;;;;;;;28.87;42.80;99653.81;5014395;28;20561;-76
2022/06/18 10:08:49;;;;;;;11.07;3.00;;;;;;;28.30;39.43;99671.00;4993589;28;20312;-75
2022/06/18 10:11:17;;;;;;;7.00;2.20;;;;;;;27.72;37.86;99680.94;5002837;28;20202;-78
2022/06/18 10:13:49;;;;;;;8.67;2.50;;;;;;;27.55;37.21;99667.06;4994399;28;20223;-77
2022/06/18 10:16:31;;;;;;;1.80;1.70;;;;;;;27.25;36.59;99678.56;4994515;28;20194;-76
2022/06/18 10:19:06;;;;;;;4.27;2.70;;;;;;;26.82;39.87;99677.09;4994634;28;20193;-76
2022/06/18 10:21:43;;;;;;;3.30;3.00;;;;;;;26.70;42.98;99679.47;4993652;28;20694;-76
2022/06/18 10:24:17;;;;;;;6.00;3.10;;;;;;;26.48;46.74;99692.84;4995120;28;20565;-80
2022/06/18 10:26:52;;;;;;;5.97;5.57;;;;;;;26.20;54.09;99699.22;4994268;28;20205;-82
2022/06/18 10:29:31;;;;;;;9.57;5.00;;;;;;;25.92;61.85;99700.91;4994385;28;20240;-75
2022/06/18 10:32:12;;;;;;;12.77;4.90;;;;;;;25.58;64.35;99715.75;4993689;28;20186;-75
2022/06/18 10:34:58;;;;;;;5.20;4.50;;;;;;;25.24;64.74;99706.81;4994326;28;20252;-76
2022/06/18 10:37:35;;;;;;;3.83;3.57;;;;;;;25.14;65.31;99712.34;4994508;28;20202;-77
2022/06/18 10:40:15;;;;;;;10.37;4.70;;;;;;;25.15;67.37;99727.56;4993644;28;20187;-76
2022/06/18 10:43:04;;;;;;;7.10;5.10;;;;;;;24.86;72.65;99747.34;4993976;28;20213;-76
2022/06/18 10:45:35;;;;;;;4.80;4.47;;;;;;;24.46;77.63;99753.00;4993741;28;20199;-77
2022/06/18 10:48:10;;;;;;;6.90;6.27;;;;;;;24.05;80.94;99756.97;4993469;28;20546;-76
2022/06/18 10:50:43;;;;;;;6.87;6.13;;;;;;;24.01;81.52;99777.63;4993424;28;20200;-78
2022/06/18 10:53:14;;;;;;;6.93;6.33;;;;;;;23.82;81.76;99790.16;4994011;28;20280;-77
2022/06/18 10:55:41;;;;;;;6.93;6.17;;;;;;;23.66;81.32;99785.00;4993809;28;20186;-80
2022/06/18 10:58:11;;;;;;;7.43;6.83;;;;;;;23.51;85.18;99787.72;4993507;28;20207;-79
2022/06/18 11:00:39;;;;;;;7.77;7.27;;;;;;;23.65;86.73;99795.03;4994237;28;20196;-77
2022/06/18 11:03:19;;;;;;;7.23;6.70;;;;;;;23.67;86.68;99787.47;5011772;28;20230;-79
2022/06/18 11:05:47;;;;;;;6.77;6.37;;;;;;;23.65;85.79;99795.03;5012597;28;20192;-77
2022/06/18 11:08:23;;;;;;;8.47;7.87;;;;;;;23.63;83.90;99797.22;5012866;28;20250;-77
2022/06/18 11:10:56;;;;;;;7.57;6.97;;;;;;;23.48;84.33;99810.78;5012606;28;20188;-77
2022/06/18 11:13:28;;;;;;;8.70;8.10;;;;;;;23.50;87.01;99808.63;5012616;28;20289;-76
2022/06/18 11:16:15;;;;;;;11.17;8.33;;;;;;;23.22;86.33;99809.16;5012495;28;20183;-77
2022/06/18 11:18:52;;;;;;;10.77;7.33;;;;;;;23.19;87.40;99806.97;5013019;28;20191;-77
2022/06/18 11:21:25;;;;;;;7.60;6.87;;;;;;;23.09;85.94;99796.13;5012443;28;20195;-77
2022/06/18 11:23:56;;;;;;;8.73;7.47;;;;;;;23.06;87.42;99815.63;5012533;28;20273;-77
2022/06/18 11:26:26;;;;;;;7.27;6.60;;;;;;;22.95;86.30;99811.25;5012461;28;20196;-77
2022/06/18 11:28:57;;;;;;;6.60;6.10;;;;;;;22.84;85.79;99815.06;5013657;28;20250;-77
2022/06/18 11:31:28;;;;;;;5.77;5.37;;;;;;;22.63;85.33;99812.56;5012751;28;20245;-78
2022/06/18 11:33:59;;;;;;;7.47;6.80;;;;;;;22.57;85.87;99825.25;5012955;28;20190;-79
2022/06/18 11:36:44;;;;;;;6.83;6.27;;;;;;;22.49;85.13;99812.22;5012851;28;20193;-79
2022/06/18 11:39:26;;;;;;;6.90;6.30;;;;;;;22.46;86.48;99807.34;5012396;28;20186;-79
2022/06/18 11:41:57;;;;;;;6.43;5.03;;;;;;;22.46;85.99;99799.22;5012702;28;20269;-79
2022/06/18 11:44:30;;;;;;;8.13;5.90;;;;;;;22.34;85.78;99793.19;5013477;28;20221;-79
2022/06/18 11:47:05;;;;;;;8.53;6.07;;;;;;;22.40;85.85;99797.56;5012893;28;20190;-79
2022/06/18 11:49:38;;;;;;;6.77;5.90;;;;;;;22.45;86.61;99786.72;5013020;28;20190;-79
2022/06/18 11:52:13;;;;;;;6.90;6.30;;;;;;;22.51;85.04;99777.59;5012376;28;20190;-78
2022/06/18 11:54:46;;;;;;;6.27;5.83;;;;;;;22.11;87.72;99771.16;5013251;28;20193;-78
2022/06/18 11:57:17;;;;;;;6.63;6.03;;;;;;;21.99;87.66;99760.56;5012487;28;20236;-79
2022/06/18 11:59:52;;;;;;;5.97;5.37;;;;;;;22.12;88.27;99762.78;5012132;28;20737;-79
2022/06/18 12:02:25;;;;;;;6.30;5.77;;;;;;;22.07;86.79;99768.19;5012419;28;20268;-79
2022/06/18 12:05:01;;;;;;;6.47;6.03;;;;;;;22.22;86.28;99775.56;5012125;28;20198;-78